createdAt,value
2018-12-31T00:00:30.726Z,8.24
2018-12-31T00:01:30.854Z,8.39
2018-12-31T00:02:30.993Z,8.24
2018-12-31T00:03:31.118Z,8.29
2018-12-31T00:04:31.246Z,8.31
2018-12-31T00:05:31.382Z,8.29
2018-12-31T00:06:31.519Z,8.39
2018-12-31T00:07:31.648Z,8.23
2018-12-31T00:08:31.836Z,8.39
2018-12-31T00:09:31.962Z,8.39
2018-12-31T00:10:32.092Z,8.35
2018-12-31T00:11:32.226Z,8.37
2018-12-31T00:12:32.352Z,8.28
2018-12-31T00:13:32.480Z,8.29
2018-12-31T00:14:32.614Z,8.38
2018-12-31T00:15:34.214Z,8.29
2018-12-31T00:16:32.876Z,8.38
2018-12-31T00:17:33.000Z,8.37
2018-12-31T00:18:33.136Z,8.23
2018-12-31T00:19:33.265Z,8.31
2018-12-31T00:20:33.395Z,8.31
2018-12-31T00:21:33.524Z,8.29
2018-12-31T00:22:33.647Z,8.16
2018-12-31T00:23:33.789Z,8.17
2018-12-31T00:24:33.917Z,8.06
2018-12-31T00:25:34.055Z,8.14
2018-12-31T00:26:34.184Z,8.09
2018-12-31T00:27:34.310Z,8.04
2018-12-31T00:28:34.443Z,8.10
2018-12-31T00:29:34.577Z,8.02
2018-12-31T00:30:34.716Z,8.02
2018-12-31T00:31:34.848Z,8.10
2018-12-31T00:32:34.975Z,8.05
2018-12-31T00:33:35.100Z,8.09
2018-12-31T00:34:35.231Z,8.13
2018-12-31T00:35:35.385Z,8.19
2018-12-31T00:36:35.515Z,8.16
2018-12-31T00:37:35.638Z,8.05
2018-12-31T00:38:35.766Z,8.13
2018-12-31T00:39:35.926Z,8.13
2018-12-31T00:40:36.056Z,8.06
2018-12-31T00:41:36.186Z,7.99
2018-12-31T00:42:36.317Z,7.94
2018-12-31T00:43:36.457Z,7.87
2018-12-31T00:44:36.581Z,7.94
2018-12-31T00:45:36.710Z,7.96
2018-12-31T00:46:36.842Z,7.94
2018-12-31T00:47:37.004Z,7.91
2018-12-31T00:48:37.123Z,7.98
2018-12-31T00:49:37.253Z,7.86
2018-12-31T00:50:37.390Z,7.84
2018-12-31T00:51:37.535Z,7.99
2018-12-31T00:52:37.657Z,7.94
2018-12-31T00:53:37.796Z,7.87
2018-12-31T00:54:37.934Z,7.91
2018-12-31T00:55:38.062Z,7.81
2018-12-31T00:56:38.184Z,7.95
2018-12-31T00:57:38.311Z,7.95
2018-12-31T00:58:38.438Z,7.91
2018-12-31T00:59:38.592Z,7.88
2018-12-31T01:00:38.698Z,7.91
2018-12-31T01:01:38.833Z,7.83
2018-12-31T01:02:38.956Z,7.88
2018-12-31T01:03:39.102Z,7.91
2018-12-31T01:04:39.229Z,7.95
2018-12-31T01:05:39.356Z,7.98
2018-12-31T01:06:39.483Z,7.86
2018-12-31T01:07:39.630Z,7.87
2018-12-31T01:08:39.759Z,7.86
2018-12-31T01:09:39.889Z,7.92
2018-12-31T01:10:40.020Z,7.78
2018-12-31T01:11:40.173Z,7.86
2018-12-31T01:12:41.325Z,7.95
2018-12-31T01:13:40.438Z,7.86
2018-12-31T01:14:40.566Z,7.99
2018-12-31T01:15:40.725Z,7.92
2018-12-31T01:16:40.850Z,7.99
2018-12-31T01:17:40.983Z,7.98
2018-12-31T01:18:41.116Z,7.87
2018-12-31T01:19:41.265Z,7.81
2018-12-31T01:20:41.420Z,7.78
2018-12-31T01:21:41.549Z,7.80
2018-12-31T01:22:41.681Z,7.77
2018-12-31T01:23:41.832Z,7.76
2018-12-31T01:24:41.952Z,7.78
2018-12-31T01:25:43.174Z,7.77
2018-12-31T01:26:42.211Z,7.78
2018-12-31T01:27:42.348Z,7.83
2018-12-31T01:28:45.421Z,7.76
2018-12-31T01:29:42.545Z,7.88
2018-12-31T01:30:42.676Z,7.88
2018-12-31T01:31:42.845Z,7.71
2018-12-31T01:32:42.973Z,7.83
2018-12-31T01:33:43.100Z,7.74
2018-12-31T01:34:43.239Z,7.78
2018-12-31T01:35:43.383Z,7.78
2018-12-31T01:36:58.891Z,7.80
2018-12-31T01:37:43.646Z,7.77
2018-12-31T01:38:43.773Z,7.78
2018-12-31T01:39:43.923Z,7.78
2018-12-31T01:40:44.047Z,7.76
2018-12-31T01:43:16.242Z,7.81
2018-12-31T01:44:16.250Z,7.81
2018-12-31T01:45:16.391Z,7.80
2018-12-31T01:46:16.513Z,7.80
2018-12-31T01:47:16.637Z,7.78
2018-12-31T01:48:16.775Z,7.77
2018-12-31T01:49:16.952Z,7.86
2018-12-31T01:50:25.990Z,7.77
2018-12-31T01:51:17.238Z,7.76
2018-12-31T01:52:17.368Z,7.78
2018-12-31T01:53:17.532Z,7.78
2018-12-31T01:54:17.640Z,7.71
2018-12-31T01:55:17.772Z,7.81
2018-12-31T01:56:17.914Z,7.78
2018-12-31T01:57:18.036Z,7.78
2018-12-31T01:58:18.167Z,7.80
2018-12-31T01:59:18.297Z,7.83
2018-12-31T02:00:18.455Z,7.83
2018-12-31T02:01:18.575Z,7.78
2018-12-31T02:02:18.704Z,7.80
2018-12-31T02:03:18.828Z,7.84
2018-12-31T02:04:18.976Z,7.78
2018-12-31T02:05:19.109Z,7.80
2018-12-31T02:06:19.276Z,7.83
2018-12-31T02:07:19.375Z,7.86
2018-12-31T02:08:19.532Z,7.88
2018-12-31T02:09:36.761Z,7.88
2018-12-31T02:10:19.767Z,7.83
2018-12-31T02:11:19.891Z,7.92
2018-12-31T02:12:20.041Z,7.92
2018-12-31T02:13:26.844Z,7.86
2018-12-31T02:14:20.348Z,7.86
2018-12-31T02:15:20.481Z,7.84
2018-12-31T02:16:20.626Z,7.83
2018-12-31T02:17:21.020Z,7.80
2018-12-31T02:18:20.903Z,7.87
2018-12-31T02:19:21.031Z,7.83
2018-12-31T02:20:21.187Z,7.78
2018-12-31T02:21:21.391Z,7.83
2018-12-31T02:22:21.391Z,7.78
2018-12-31T02:23:21.539Z,7.83
2018-12-31T02:24:21.652Z,7.81
2018-12-31T02:25:22.857Z,7.78
2018-12-31T02:26:21.915Z,7.88
2018-12-31T02:27:22.047Z,7.74
2018-12-31T02:28:22.182Z,7.74
2018-12-31T02:29:22.314Z,7.78
2018-12-31T02:30:22.438Z,7.74
2018-12-31T02:31:22.567Z,7.68
2018-12-31T02:32:22.732Z,7.77
2018-12-31T02:33:22.857Z,7.92
2018-12-31T02:34:22.989Z,7.92
2018-12-31T02:35:23.119Z,7.86
2018-12-31T02:36:23.367Z,7.78
2018-12-31T02:37:30.988Z,7.78
2018-12-31T02:38:23.488Z,7.76
2018-12-31T02:39:23.641Z,7.88
2018-12-31T02:40:23.792Z,7.83
2018-12-31T02:41:23.919Z,7.83
2018-12-31T02:42:24.055Z,7.78
2018-12-31T02:43:24.205Z,7.80
2018-12-31T02:44:24.340Z,7.78
2018-12-31T02:45:24.470Z,7.76
2018-12-31T02:46:24.596Z,7.80
2018-12-31T02:47:24.767Z,7.78
2018-12-31T02:48:24.942Z,7.77
2018-12-31T02:49:24.948Z,7.77
2018-12-31T02:50:25.074Z,7.78
2018-12-31T02:51:25.203Z,7.73
2018-12-31T02:52:25.926Z,7.64
2018-12-31T02:54:57.399Z,7.78
2018-12-31T02:55:57.530Z,7.64
2018-12-31T02:56:57.660Z,7.60
2018-12-31T02:57:57.789Z,7.66
2018-12-31T02:58:57.919Z,7.52
2018-12-31T02:59:59.098Z,7.54
2018-12-31T03:00:58.177Z,7.50
2018-12-31T03:01:58.304Z,7.50
2018-12-31T03:02:58.427Z,7.47
2018-12-31T03:03:58.561Z,7.49
2018-12-31T03:04:58.690Z,7.54
2018-12-31T03:05:58.819Z,7.46
2018-12-31T03:06:58.945Z,7.49
2018-12-31T03:07:59.075Z,7.55
2018-12-31T03:08:59.206Z,7.64
2018-12-31T03:09:59.331Z,7.55
2018-12-31T03:10:59.461Z,7.57
2018-12-31T03:11:59.589Z,7.60
2018-12-31T03:12:59.719Z,7.50
2018-12-31T03:13:59.847Z,7.62
2018-12-31T03:14:59.971Z,7.57
2018-12-31T03:16:00.099Z,7.61
2018-12-31T03:17:00.225Z,7.52
2018-12-31T03:18:00.355Z,7.62
2018-12-31T03:19:00.483Z,7.64
2018-12-31T03:20:00.674Z,7.60
2018-12-31T03:21:00.739Z,7.69
2018-12-31T03:22:00.867Z,7.78
2018-12-31T03:23:00.989Z,7.77
2018-12-31T03:24:01.125Z,7.74
2018-12-31T03:25:01.256Z,7.76
2018-12-31T03:26:01.396Z,7.78
2018-12-31T03:27:01.523Z,7.73
2018-12-31T03:28:01.645Z,7.77
2018-12-31T03:29:01.772Z,7.78
2018-12-31T03:30:01.927Z,7.86
2018-12-31T03:31:02.035Z,7.80
2018-12-31T03:32:02.173Z,7.80
2018-12-31T03:33:02.292Z,7.81
2018-12-31T03:34:02.420Z,7.81
2018-12-31T03:35:02.553Z,7.80
2018-12-31T03:36:02.673Z,7.87
2018-12-31T03:37:02.803Z,7.88
2018-12-31T03:38:02.928Z,7.86
2018-12-31T03:39:03.059Z,7.74
2018-12-31T03:40:03.195Z,7.81
2018-12-31T03:41:03.328Z,7.80
2018-12-31T03:42:03.456Z,7.76
2018-12-31T03:43:03.587Z,7.78
2018-12-31T03:44:03.716Z,7.78
2018-12-31T03:45:03.849Z,7.78
2018-12-31T03:46:03.974Z,7.81
2018-12-31T03:47:04.101Z,7.87
2018-12-31T03:48:04.231Z,7.84
2018-12-31T03:49:04.359Z,7.83
2018-12-31T03:50:04.490Z,7.94
2018-12-31T03:51:04.623Z,7.86
2018-12-31T03:52:04.744Z,7.94
2018-12-31T03:53:04.879Z,7.86
2018-12-31T03:54:05.119Z,7.92
2018-12-31T03:55:05.130Z,7.94
2018-12-31T03:56:05.261Z,7.99
2018-12-31T03:57:05.394Z,7.96
2018-12-31T03:58:05.528Z,8.02
2018-12-31T03:59:05.649Z,8.02
2018-12-31T04:00:05.793Z,7.98
2018-12-31T04:01:05.922Z,7.99
2018-12-31T04:02:06.058Z,7.92
2018-12-31T04:03:06.181Z,8.01
2018-12-31T04:04:06.301Z,7.98
2018-12-31T04:05:06.437Z,7.94
2018-12-31T04:06:06.553Z,7.87
2018-12-31T04:07:06.686Z,7.87
2018-12-31T04:08:06.810Z,7.84
2018-12-31T04:09:06.937Z,7.92
2018-12-31T04:10:07.071Z,7.88
2018-12-31T04:11:07.194Z,7.86
2018-12-31T04:12:07.326Z,7.94
2018-12-31T04:13:07.456Z,7.81
2018-12-31T04:14:07.632Z,7.81
2018-12-31T04:15:08.494Z,7.81
2018-12-31T04:17:39.721Z,7.95
2018-12-31T04:18:39.850Z,7.81
2018-12-31T04:19:39.980Z,7.95
2018-12-31T04:20:40.109Z,7.95
2018-12-31T04:21:40.259Z,7.94
2018-12-31T04:22:40.378Z,7.95
2018-12-31T04:23:40.504Z,7.86
2018-12-31T04:24:40.634Z,7.94
2018-12-31T04:25:40.788Z,7.94
2018-12-31T04:26:56.608Z,7.95
2018-12-31T04:27:40.984Z,7.94
2018-12-31T04:28:41.115Z,7.95
2018-12-31T04:29:41.262Z,7.91
2018-12-31T04:30:48.212Z,7.88
2018-12-31T04:31:41.458Z,7.92
2018-12-31T04:32:41.588Z,7.91
2018-12-31T04:33:41.739Z,7.83
2018-12-31T04:34:48.704Z,7.81
2018-12-31T04:35:41.962Z,7.80
2018-12-31T04:36:42.092Z,7.77
2018-12-31T04:37:42.235Z,7.76
2018-12-31T04:38:42.479Z,7.77
2018-12-31T04:39:42.480Z,7.74
2018-12-31T04:40:42.604Z,7.81
2018-12-31T04:41:42.763Z,7.76
2018-12-31T04:42:42.891Z,7.68
2018-12-31T04:43:43.019Z,7.66
2018-12-31T04:44:43.180Z,7.81
2018-12-31T04:45:43.331Z,7.68
2018-12-31T04:46:43.465Z,7.80
2018-12-31T04:47:44.484Z,7.77
2018-12-31T04:48:43.789Z,7.68
2018-12-31T04:49:43.914Z,7.71
2018-12-31T04:50:44.050Z,7.80
2018-12-31T04:51:44.177Z,7.74
2018-12-31T04:52:44.333Z,7.73
2018-12-31T04:53:44.463Z,7.77
2018-12-31T04:54:44.589Z,7.76
2018-12-31T04:55:44.777Z,7.77
2018-12-31T04:56:44.866Z,7.80
2018-12-31T04:57:46.978Z,7.78
2018-12-31T04:58:45.107Z,7.81
2018-12-31T04:59:45.235Z,7.87
2018-12-31T05:00:45.394Z,7.78
2018-12-31T05:01:45.603Z,7.78
2018-12-31T05:02:45.604Z,7.77
2018-12-31T05:03:45.738Z,7.74
2018-12-31T05:04:45.886Z,7.78
2018-12-31T05:05:46.011Z,7.73
2018-12-31T05:06:46.138Z,7.73
2018-12-31T05:07:46.283Z,7.77
2018-12-31T05:08:46.431Z,7.77
2018-12-31T05:09:46.558Z,7.78
2018-12-31T05:10:46.680Z,7.80
2018-12-31T05:11:46.810Z,7.77
2018-12-31T05:12:46.938Z,7.83
2018-12-31T05:13:47.067Z,7.71
2018-12-31T05:14:47.200Z,7.80
2018-12-31T05:15:47.327Z,7.81
2018-12-31T05:16:47.476Z,7.86
2018-12-31T05:17:47.601Z,7.81
2018-12-31T05:18:47.732Z,7.80
2018-12-31T05:19:47.866Z,7.78
2018-12-31T05:20:48.049Z,7.78
2018-12-31T05:21:48.173Z,7.77
2018-12-31T05:22:48.304Z,7.81
2018-12-31T05:23:48.430Z,7.92
2018-12-31T05:24:48.608Z,7.88
2018-12-31T05:25:48.736Z,7.86
2018-12-31T05:26:48.859Z,7.91
2018-12-31T05:27:48.996Z,7.96
2018-12-31T05:28:49.137Z,7.94
2018-12-31T05:29:49.376Z,7.98
2018-12-31T05:30:49.380Z,7.95
2018-12-31T05:31:49.511Z,8.02
2018-12-31T05:32:49.664Z,8.01
2018-12-31T05:33:49.821Z,7.94
2018-12-31T05:34:49.944Z,8.02
2018-12-31T05:35:50.078Z,7.96
2018-12-31T05:36:50.272Z,8.04
2018-12-31T05:37:50.273Z,7.99
2018-12-31T05:38:50.401Z,7.96
2018-12-31T05:39:50.529Z,8.02
2018-12-31T05:40:50.680Z,8.04
2018-12-31T05:41:50.806Z,8.13
2018-12-31T05:42:50.930Z,8.02
2018-12-31T05:43:51.061Z,8.04
2018-12-31T05:44:51.217Z,8.05
2018-12-31T05:45:51.344Z,8.16
2018-12-31T05:46:51.467Z,8.16
2018-12-31T05:47:51.604Z,8.13
2018-12-31T05:48:51.770Z,8.10
2018-12-31T05:49:51.888Z,8.23
2018-12-31T05:50:52.018Z,8.21
2018-12-31T05:51:52.147Z,8.28
2018-12-31T05:52:52.305Z,8.26
2018-12-31T05:53:52.429Z,8.24
2018-12-31T05:54:52.559Z,8.24
2018-12-31T05:55:52.686Z,8.24
2018-12-31T05:56:52.851Z,8.26
2018-12-31T05:57:52.976Z,8.19
2018-12-31T05:58:53.106Z,8.26
2018-12-31T05:59:53.235Z,8.28
2018-12-31T06:00:53.424Z,8.16
2018-12-31T06:01:53.510Z,8.20
2018-12-31T06:02:53.629Z,8.28
2018-12-31T06:03:53.776Z,8.23
2018-12-31T06:04:53.927Z,8.24
2018-12-31T06:05:54.052Z,8.17
2018-12-31T06:06:54.181Z,8.14
2018-12-31T06:07:54.314Z,8.12
2018-12-31T06:08:54.446Z,8.17
2018-12-31T06:09:54.576Z,8.06
2018-12-31T06:10:54.705Z,8.10
2018-12-31T06:11:54.832Z,8.06
2018-12-31T06:12:54.963Z,8.01
2018-12-31T06:13:55.096Z,8.10
2018-12-31T06:14:55.229Z,8.04
2018-12-31T06:15:55.362Z,8.02
2018-12-31T06:16:55.491Z,8.04
2018-12-31T06:17:55.619Z,8.09
2018-12-31T06:18:55.752Z,8.02
2018-12-31T06:19:55.943Z,7.99
2018-12-31T06:20:56.068Z,8.04
2018-12-31T06:21:56.199Z,8.02
2018-12-31T06:22:56.335Z,7.96
2018-12-31T06:23:56.467Z,7.98
2018-12-31T06:24:56.593Z,8.05
2018-12-31T06:25:56.722Z,7.96
2018-12-31T06:26:56.850Z,7.95
2018-12-31T06:27:56.977Z,7.91
2018-12-31T06:28:57.109Z,7.98
2018-12-31T06:29:57.249Z,7.88
2018-12-31T06:30:57.369Z,7.87
2018-12-31T06:31:57.496Z,7.94
2018-12-31T06:32:57.631Z,7.94
2018-12-31T06:33:57.765Z,7.95
2018-12-31T06:34:57.898Z,7.87
2018-12-31T06:35:58.027Z,7.92
2018-12-31T06:36:58.154Z,7.95
2018-12-31T06:37:58.306Z,7.94
2018-12-31T06:38:58.415Z,8.02
2018-12-31T06:39:58.546Z,8.01
2018-12-31T06:40:58.683Z,7.99
2018-12-31T06:41:58.807Z,7.99
2018-12-31T06:42:58.937Z,7.98
2018-12-31T06:43:59.079Z,8.02
2018-12-31T06:44:59.208Z,8.02
2018-12-31T06:45:59.337Z,8.02
2018-12-31T06:46:59.467Z,8.05
2018-12-31T06:47:59.597Z,7.96
2018-12-31T06:48:59.725Z,7.92
2018-12-31T06:49:59.858Z,8.02
2018-12-31T06:50:59.986Z,7.98
2018-12-31T06:52:00.115Z,7.99
2018-12-31T06:53:00.245Z,7.96
2018-12-31T06:54:00.376Z,7.99
2018-12-31T06:55:00.507Z,7.96
2018-12-31T06:56:00.638Z,7.99
2018-12-31T06:57:00.764Z,7.95
2018-12-31T06:58:00.894Z,7.94
2018-12-31T06:59:01.026Z,8.01
2018-12-31T07:00:01.154Z,7.92
2018-12-31T07:01:01.283Z,8.04
2018-12-31T07:02:01.425Z,7.98
2018-12-31T07:03:02.711Z,7.98
2018-12-31T07:04:01.719Z,7.95
2018-12-31T07:05:01.847Z,8.01
2018-12-31T07:06:02.064Z,7.98
2018-12-31T07:07:02.071Z,7.98
2018-12-31T07:08:02.201Z,8.01
2018-12-31T07:09:02.327Z,7.92
2018-12-31T07:10:02.478Z,8.06
2018-12-31T07:11:02.600Z,7.99
2018-12-31T07:12:02.728Z,7.98
2018-12-31T07:13:02.859Z,7.99
2018-12-31T07:14:03.045Z,8.04
2018-12-31T07:15:03.134Z,8.01
2018-12-31T07:16:03.261Z,7.98
2018-12-31T07:17:03.391Z,8.10
2018-12-31T07:18:03.560Z,7.99
2018-12-31T07:19:03.666Z,8.05
2018-12-31T07:20:03.803Z,8.02
2018-12-31T07:21:03.931Z,8.04
2018-12-31T07:22:04.073Z,7.95
2018-12-31T07:23:04.229Z,8.01
2018-12-31T07:24:04.353Z,8.02
2018-12-31T07:25:04.481Z,8.01
2018-12-31T07:26:04.642Z,8.05
2018-12-31T07:27:04.773Z,8.04
2018-12-31T07:28:04.908Z,8.06
2018-12-31T07:29:05.030Z,7.98
2018-12-31T07:30:05.169Z,8.12
2018-12-31T07:31:05.295Z,8.14
2018-12-31T07:32:05.429Z,8.14
2018-12-31T07:33:05.555Z,8.26
2018-12-31T07:34:05.708Z,8.26
2018-12-31T07:35:05.839Z,8.28
2018-12-31T07:36:05.972Z,8.26
2018-12-31T07:37:06.107Z,8.26
2018-12-31T07:38:06.239Z,8.28
2018-12-31T07:39:06.367Z,8.37
2018-12-31T07:40:06.504Z,8.26
2018-12-31T07:41:06.627Z,8.29
2018-12-31T07:42:06.781Z,8.20
2018-12-31T07:43:06.923Z,8.21
2018-12-31T07:44:07.051Z,8.34
2018-12-31T07:45:07.190Z,8.31
2018-12-31T07:46:07.321Z,8.28
2018-12-31T07:47:07.921Z,8.23
2018-12-31T07:48:07.554Z,8.24
2018-12-31T07:49:07.695Z,8.26
2018-12-31T07:50:07.839Z,8.37
2018-12-31T07:51:14.675Z,8.21
2018-12-31T07:52:08.053Z,8.12
2018-12-31T07:53:08.186Z,8.19
2018-12-31T07:54:08.335Z,8.04
2018-12-31T07:55:08.463Z,8.14
2018-12-31T07:56:08.592Z,8.20
2018-12-31T07:57:08.717Z,8.17
2018-12-31T07:58:08.871Z,8.17
2018-12-31T07:59:08.999Z,8.17
2018-12-31T08:00:09.128Z,8.20
2018-12-31T08:01:09.258Z,8.10
2018-12-31T08:02:09.426Z,8.09
2018-12-31T08:03:09.550Z,8.20
2018-12-31T08:04:09.678Z,8.20
2018-12-31T08:05:09.810Z,8.29
2018-12-31T08:06:09.969Z,8.24
2018-12-31T08:07:10.386Z,8.24
2018-12-31T08:08:10.262Z,8.34
2018-12-31T08:09:10.395Z,8.29
2018-12-31T08:10:10.542Z,8.29
2018-12-31T08:11:11.153Z,8.29
2018-12-31T08:12:10.786Z,8.29
2018-12-31T08:13:10.918Z,8.34
2018-12-31T08:14:11.071Z,8.35
2018-12-31T08:15:17.993Z,8.32
2018-12-31T08:16:11.370Z,8.41
2018-12-31T08:17:11.496Z,8.47
2018-12-31T08:18:11.662Z,8.35
2018-12-31T08:19:11.782Z,8.35
2018-12-31T08:20:11.914Z,8.35
2018-12-31T08:21:12.064Z,8.34
2018-12-31T08:22:12.205Z,8.37
2018-12-31T08:23:12.326Z,8.46
2018-12-31T08:24:12.473Z,8.34
2018-12-31T08:25:12.622Z,8.32
2018-12-31T08:26:12.777Z,8.39
2018-12-31T08:27:12.915Z,8.42
2018-12-31T08:28:13.047Z,8.37
2018-12-31T08:29:13.177Z,8.34
2018-12-31T08:30:13.355Z,8.39
2018-12-31T08:31:13.524Z,8.44
2018-12-31T08:32:13.665Z,8.37
2018-12-31T08:33:13.790Z,8.41
2018-12-31T08:34:13.943Z,8.59
2018-12-31T08:35:14.076Z,8.55
2018-12-31T08:36:14.208Z,8.52
2018-12-31T08:37:14.336Z,8.53
2018-12-31T08:38:14.463Z,8.57
2018-12-31T08:39:16.682Z,8.60
2018-12-31T08:40:14.683Z,8.55
2018-12-31T08:41:14.811Z,8.53
2018-12-31T08:42:14.986Z,8.47
2018-12-31T08:43:15.114Z,8.46
2018-12-31T08:44:15.243Z,8.49
2018-12-31T08:45:15.368Z,8.46
2018-12-31T08:46:15.507Z,8.50
2018-12-31T08:47:15.681Z,8.47
2018-12-31T08:48:15.807Z,8.56
2018-12-31T08:49:15.935Z,8.57
2018-12-31T08:50:16.122Z,8.63
2018-12-31T08:51:16.245Z,8.57
2018-12-31T08:52:16.377Z,8.57
2018-12-31T08:53:16.511Z,8.65
2018-12-31T08:54:16.649Z,8.60
2018-12-31T08:55:16.775Z,8.62
2018-12-31T08:56:16.914Z,8.60
2018-12-31T08:57:17.047Z,8.67
2018-12-31T08:58:17.171Z,8.55
2018-12-31T08:59:17.310Z,8.62
2018-12-31T09:00:17.442Z,8.63
2018-12-31T09:01:17.578Z,8.67
2018-12-31T09:02:17.707Z,8.63
2018-12-31T09:03:17.833Z,8.70
2018-12-31T09:04:17.976Z,8.80
2018-12-31T09:05:18.099Z,8.75
2018-12-31T09:06:18.230Z,8.72
2018-12-31T09:07:18.363Z,8.80
2018-12-31T09:08:18.494Z,8.83
2018-12-31T09:09:18.629Z,8.75
2018-12-31T09:10:18.753Z,8.72
2018-12-31T09:11:18.888Z,8.75
2018-12-31T09:12:19.019Z,8.75
2018-12-31T09:13:19.143Z,8.78
2018-12-31T09:14:19.274Z,8.68
2018-12-31T09:15:19.411Z,8.70
2018-12-31T09:16:19.548Z,8.88
2018-12-31T09:17:19.680Z,8.81
2018-12-31T09:18:19.810Z,8.93
2018-12-31T09:19:19.947Z,8.93
2018-12-31T09:20:20.076Z,8.88
2018-12-31T09:21:20.222Z,8.83
2018-12-31T09:22:20.341Z,8.92
2018-12-31T09:23:20.493Z,8.80
2018-12-31T09:24:20.626Z,8.96
2018-12-31T09:25:20.759Z,8.83
2018-12-31T09:26:20.896Z,8.93
2018-12-31T09:27:21.029Z,8.86
2018-12-31T09:28:21.153Z,8.80
2018-12-31T09:29:21.281Z,8.83
2018-12-31T09:30:21.415Z,8.85
2018-12-31T09:31:21.546Z,8.86
2018-12-31T09:32:21.684Z,8.93
2018-12-31T09:33:21.822Z,8.85
2018-12-31T09:34:21.948Z,8.96
2018-12-31T09:35:22.083Z,8.83
2018-12-31T09:36:22.217Z,8.83
2018-12-31T09:37:22.349Z,8.75
2018-12-31T09:38:22.480Z,8.81
2018-12-31T09:39:22.621Z,8.85
2018-12-31T09:40:22.753Z,8.85
2018-12-31T09:41:22.883Z,9.01
2018-12-31T09:42:23.023Z,8.86
2018-12-31T09:43:23.148Z,8.93
2018-12-31T09:44:23.331Z,8.92
2018-12-31T09:45:23.415Z,8.90
2018-12-31T09:46:23.544Z,8.92
2018-12-31T09:47:23.688Z,8.88
2018-12-31T09:48:23.818Z,8.95
2018-12-31T09:49:23.949Z,8.96
2018-12-31T09:50:24.080Z,8.95
2018-12-31T09:51:24.225Z,8.99
2018-12-31T09:52:32.877Z,8.93
2018-12-31T09:53:24.506Z,8.99
2018-12-31T09:54:24.637Z,8.98
2018-12-31T09:55:24.805Z,9.06
2018-12-31T09:56:25.050Z,9.19
2018-12-31T09:57:25.055Z,9.14
2018-12-31T09:58:25.181Z,9.03
2018-12-31T09:59:25.343Z,9.14
2018-12-31T10:00:25.465Z,9.09
2018-12-31T10:01:25.593Z,9.16
2018-12-31T10:02:25.724Z,9.12
2018-12-31T10:03:25.889Z,9.15
2018-12-31T10:04:40.763Z,9.24
2018-12-31T10:05:26.165Z,9.22
2018-12-31T10:06:26.301Z,9.29
2018-12-31T10:07:26.468Z,9.27
2018-12-31T10:08:26.607Z,9.16
2018-12-31T10:09:26.732Z,9.33
2018-12-31T10:10:26.896Z,9.27
2018-12-31T10:11:27.090Z,9.29
2018-12-31T10:12:27.096Z,9.32
2018-12-31T10:13:27.229Z,9.23
2018-12-31T10:14:27.374Z,9.22
2018-12-31T10:15:27.498Z,9.19
2018-12-31T10:16:27.639Z,9.33
2018-12-31T10:17:27.776Z,9.37
2018-12-31T10:18:27.960Z,9.32
2018-12-31T10:19:28.081Z,9.33
2018-12-31T10:20:28.214Z,9.36
2018-12-31T10:21:28.346Z,9.50
2018-12-31T10:22:28.495Z,9.42
2018-12-31T10:23:28.623Z,9.40
2018-12-31T10:24:28.762Z,9.48
2018-12-31T10:25:28.893Z,9.60
2018-12-31T10:26:29.054Z,9.47
2018-12-31T10:27:30.374Z,9.50
2018-12-31T10:28:29.266Z,9.47
2018-12-31T10:29:35.958Z,9.48
2018-12-31T10:30:29.560Z,9.50
2018-12-31T10:31:29.685Z,9.54
2018-12-31T10:32:29.823Z,9.48
2018-12-31T10:33:29.953Z,9.59
2018-12-31T10:34:30.115Z,9.54
2018-12-31T10:35:30.256Z,9.70
2018-12-31T10:36:30.380Z,9.63
2018-12-31T10:37:30.519Z,9.67
2018-12-31T10:38:30.655Z,9.59
2018-12-31T10:39:31.374Z,9.57
2018-12-31T10:40:30.875Z,9.54
2018-12-31T10:41:31.008Z,9.63
2018-12-31T10:42:31.162Z,9.69
2018-12-31T10:43:31.297Z,9.83
2018-12-31T10:44:31.436Z,9.80
2018-12-31T10:45:31.571Z,9.65
2018-12-31T10:46:31.742Z,9.67
2018-12-31T10:47:31.861Z,9.67
2018-12-31T10:48:31.989Z,9.55
2018-12-31T10:49:32.121Z,9.48
2018-12-31T10:50:32.276Z,9.52
2018-12-31T10:51:32.397Z,9.66
2018-12-31T10:52:32.524Z,9.73
2018-12-31T10:53:32.655Z,9.65
2018-12-31T10:54:32.804Z,9.59
2018-12-31T10:55:32.932Z,9.72
2018-12-31T10:56:33.063Z,9.77
2018-12-31T10:57:33.192Z,9.72
2018-12-31T10:58:33.315Z,9.78
2018-12-31T10:59:33.446Z,9.70
2018-12-31T11:00:33.582Z,9.80
2018-12-31T11:01:33.713Z,9.78
2018-12-31T11:02:33.844Z,9.85
2018-12-31T11:03:33.989Z,9.77
2018-12-31T11:04:34.127Z,9.93
2018-12-31T11:05:34.263Z,9.99
2018-12-31T11:06:34.410Z,9.90
2018-12-31T11:07:34.556Z,9.85
2018-12-31T11:08:34.684Z,9.93
2018-12-31T11:09:34.820Z,9.90
2018-12-31T11:10:34.951Z,9.83
2018-12-31T11:11:35.086Z,9.84
2018-12-31T11:12:35.217Z,9.87
2018-12-31T11:13:35.344Z,9.93
2018-12-31T11:14:35.477Z,9.93
2018-12-31T11:15:35.606Z,9.94
2018-12-31T11:16:35.735Z,9.93
2018-12-31T11:17:35.872Z,9.94
2018-12-31T11:18:36.011Z,10.03
2018-12-31T11:19:36.145Z,10.02
2018-12-31T11:20:36.273Z,10.02
2018-12-31T11:21:36.398Z,9.99
2018-12-31T11:22:36.535Z,9.93
2018-12-31T11:23:36.668Z,10.05
2018-12-31T11:24:36.798Z,9.99
2018-12-31T11:25:37.840Z,9.93
2018-12-31T11:26:37.066Z,9.99
2018-12-31T11:27:37.194Z,9.99
2018-12-31T11:28:37.328Z,9.93
2018-12-31T11:29:37.457Z,10.06
2018-12-31T11:30:37.585Z,9.94
2018-12-31T11:31:37.732Z,10.03
2018-12-31T11:32:37.854Z,9.99
2018-12-31T11:33:37.982Z,10.08
2018-12-31T11:34:38.137Z,10.02
2018-12-31T11:35:38.254Z,9.91
2018-12-31T11:36:38.461Z,9.94
2018-12-31T11:37:38.522Z,9.93
2018-12-31T11:38:38.645Z,9.98
2018-12-31T11:39:38.774Z,10.06
2018-12-31T11:40:38.916Z,10.06
2018-12-31T11:41:39.055Z,10.02
2018-12-31T11:42:39.192Z,10.05
2018-12-31T11:43:39.333Z,10.01
2018-12-31T11:44:39.460Z,9.99
2018-12-31T11:45:39.589Z,9.98
2018-12-31T11:46:39.723Z,10.03
2018-12-31T11:47:39.853Z,9.91
2018-12-31T11:48:40.025Z,9.99
2018-12-31T11:49:40.150Z,9.98
2018-12-31T11:50:40.291Z,9.90
2018-12-31T11:51:40.428Z,9.81
2018-12-31T11:52:40.564Z,9.98
2018-12-31T11:53:40.698Z,9.85
2018-12-31T11:54:40.826Z,9.83
2018-12-31T11:55:40.975Z,9.87
2018-12-31T11:56:41.105Z,9.83
2018-12-31T11:57:41.232Z,9.88
2018-12-31T11:58:41.373Z,9.84
2018-12-31T11:59:41.502Z,9.80
2018-12-31T12:00:41.643Z,9.73
2018-12-31T12:01:41.779Z,9.75
2018-12-31T12:02:41.930Z,9.81
2018-12-31T12:03:42.057Z,9.90
2018-12-31T12:04:42.188Z,9.90
2018-12-31T12:05:42.314Z,9.96
2018-12-31T12:06:42.503Z,9.94
2018-12-31T12:07:42.602Z,9.93
2018-12-31T12:08:42.729Z,9.94
2018-12-31T12:09:42.859Z,9.93
2018-12-31T12:10:43.035Z,9.99
2018-12-31T12:11:43.162Z,10.08
2018-12-31T12:12:43.298Z,10.10
2018-12-31T12:13:43.425Z,10.14
2018-12-31T12:14:43.604Z,10.02
2018-12-31T12:15:45.936Z,10.09
2018-12-31T12:16:43.812Z,10.02
2018-12-31T12:17:43.941Z,10.12
2018-12-31T12:18:44.117Z,10.21
2018-12-31T12:19:44.325Z,10.14
2018-12-31T12:20:44.347Z,10.20
2018-12-31T12:21:44.484Z,10.24
2018-12-31T12:22:44.659Z,10.28
2018-12-31T12:23:44.792Z,10.34
2018-12-31T12:24:44.932Z,10.48
2018-12-31T12:25:45.076Z,10.45
2018-12-31T12:26:45.233Z,10.57
2018-12-31T12:27:45.357Z,10.48
2018-12-31T12:28:45.500Z,10.60
2018-12-31T12:29:45.631Z,10.46
2018-12-31T12:30:45.796Z,10.43
2018-12-31T12:31:45.923Z,10.41
2018-12-31T12:32:46.056Z,10.52
2018-12-31T12:33:46.230Z,10.39
2018-12-31T12:34:46.346Z,10.49
2018-12-31T12:35:46.484Z,10.48
2018-12-31T12:36:46.613Z,10.43
2018-12-31T12:37:48.653Z,10.55
2018-12-31T12:38:46.909Z,10.49
2018-12-31T12:39:47.033Z,10.43
2018-12-31T12:40:47.734Z,10.48
2018-12-31T12:41:47.274Z,10.46
2018-12-31T12:42:47.439Z,10.42
2018-12-31T12:43:47.569Z,10.42
2018-12-31T12:44:47.698Z,10.46
2018-12-31T12:45:47.904Z,10.41
2018-12-31T12:46:47.921Z,10.41
2018-12-31T12:47:48.047Z,10.43
2018-12-31T12:48:48.191Z,10.45
2018-12-31T12:49:48.321Z,10.45
2018-12-31T12:50:48.527Z,10.42
2018-12-31T12:51:48.527Z,10.42
2018-12-31T12:52:48.664Z,10.46
2018-12-31T12:53:48.794Z,10.46
2018-12-31T12:54:48.926Z,10.43
2018-12-31T12:55:49.071Z,10.41
2018-12-31T12:56:49.197Z,10.31
2018-12-31T12:57:49.323Z,10.28
2018-12-31T12:58:49.461Z,10.27
2018-12-31T12:59:49.601Z,10.23
2018-12-31T13:00:49.738Z,10.36
2018-12-31T13:01:49.861Z,10.24
2018-12-31T13:02:49.997Z,10.34
2018-12-31T13:03:50.157Z,10.23
2018-12-31T13:04:50.262Z,10.30
2018-12-31T13:05:50.405Z,10.26
2018-12-31T13:06:50.523Z,10.26
2018-12-31T13:07:50.720Z,10.28
2018-12-31T13:08:50.726Z,10.30
2018-12-31T13:09:50.854Z,10.36
2018-12-31T13:10:50.994Z,10.27
2018-12-31T13:11:51.124Z,10.18
2018-12-31T13:12:51.255Z,10.30
2018-12-31T13:13:51.389Z,10.16
2018-12-31T13:14:51.538Z,10.14
2018-12-31T13:15:51.665Z,10.20
2018-12-31T13:16:51.807Z,10.27
2018-12-31T13:17:51.934Z,10.31
2018-12-31T13:18:52.091Z,10.28
2018-12-31T13:19:52.219Z,10.30
2018-12-31T13:20:52.348Z,10.18
2018-12-31T13:21:52.507Z,10.28